sensor_id;sensor_type;location;lat;lon;timestamp;temperature;humidity
4934;DHT22;2482;49.154;8.254;2023-08-08T00:02:02;14.30;99.90
4934;DHT22;2482;49.154;8.254;2023-08-08T00:04:29;14.30;99.90
4934;DHT22;2482;49.154;8.254;2023-08-08T00:06:56;14.30;99.90
4934;DHT22;2482;49.154;8.254;2023-08-08T00:09:23;14.40;99.90
4934;DHT22;2482;49.154;8.254;2023-08-08T00:11:51;14.40;99.90
4934;DHT22;2482;49.154;8.254;2023-08-08T00:14:17;14.40;99.90
4934;DHT22;2482;49.154;8.254;2023-08-08T00:16:44;14.50;99.90
4934;DHT22;2482;49.154;8.254;2023-08-08T00:19:12;14.40;99.90
4934;DHT22;2482;49.154;8.254;2023-08-08T00:21:38;14.30;99.90
4934;DHT22;2482;49.154;8.254;2023-08-08T00:24:05;14.40;99.90
4934;DHT22;2482;49.154;8.254;2023-08-08T00:26:33;14.50;99.90
4934;DHT22;2482;49.154;8.254;2023-08-08T00:29:00;14.50;99.90
4934;DHT22;2482;49.154;8.254;2023-08-08T00:31:27;14.40;99.90
4934;DHT22;2482;49.154;8.254;2023-08-08T00:33:54;14.30;99.90
4934;DHT22;2482;49.154;8.254;2023-08-08T00:36:21;14.40;99.90
4934;DHT22;2482;49.154;8.254;2023-08-08T00:38:48;14.50;99.90
4934;DHT22;2482;49.154;8.254;2023-08-08T00:41:15;14.50;99.90
4934;DHT22;2482;49.154;8.254;2023-08-08T00:43:42;14.40;99.90
4934;DHT22;2482;49.154;8.254;2023-08-08T00:46:10;14.40;99.90
4934;DHT22;2482;49.154;8.254;2023-08-08T00:48:38;14.20;99.90
4934;DHT22;2482;49.154;8.254;2023-08-08T00:51:05;14.30;99.90
4934;DHT22;2482;49.154;8.254;2023-08-08T00:53:32;14.20;99.90
4934;DHT22;2482;49.154;8.254;2023-08-08T00:56:00;14.30;99.90
4934;DHT22;2482;49.154;8.254;2023-08-08T00:58:27;14.20;99.90
4934;DHT22;2482;49.154;8.254;2023-08-08T01:00:55;14.10;99.90
4934;DHT22;2482;49.154;8.254;2023-08-08T01:03:24;14.00;99.90
4934;DHT22;2482;49.154;8.254;2023-08-08T01:06:00;14.10;99.90
4934;DHT22;2482;49.154;8.254;2023-08-08T01:08:42;14.00;99.90
4934;DHT22;2482;49.154;8.254;2023-08-08T01:11:15;13.90;99.90
4934;DHT22;2482;49.154;8.254;2023-08-08T01:13:42;13.90;99.90
4934;DHT22;2482;49.154;8.254;2023-08-08T01:16:10;13.80;99.90
4934;DHT22;2482;49.154;8.254;2023-08-08T01:18:39;13.80;99.90
4934;DHT22;2482;49.154;8.254;2023-08-08T01:21:08;13.70;99.90
4934;DHT22;2482;49.154;8.254;2023-08-08T01:23:49;13.70;99.90
4934;DHT22;2482;49.154;8.254;2023-08-08T01:26:21;13.70;99.90
4934;DHT22;2482;49.154;8.254;2023-08-08T01:28:48;13.60;99.90
4934;DHT22;2482;49.154;8.254;2023-08-08T01:31:19;13.60;99.90
4934;DHT22;2482;49.154;8.254;2023-08-08T01:33:47;13.50;99.90
4934;DHT22;2482;49.154;8.254;2023-08-08T01:36:29;13.40;99.90
4934;DHT22;2482;49.154;8.254;2023-08-08T01:39:02;13.40;99.90
4934;DHT22;2482;49.154;8.254;2023-08-08T01:41:33;13.50;99.90
4934;DHT22;2482;49.154;8.254;2023-08-08T01:44:01;13.50;99.90
4934;DHT22;2482;49.154;8.254;2023-08-08T01:46:29;13.50;99.90
4934;DHT22;2482;49.154;8.254;2023-08-08T01:49:00;13.40;99.90
4934;DHT22;2482;49.154;8.254;2023-08-08T01:51:27;13.50;99.90
4934;DHT22;2482;49.154;8.254;2023-08-08T01:53:55;13.40;99.90
4934;DHT22;2482;49.154;8.254;2023-08-08T01:56:22;13.30;99.90
4934;DHT22;2482;49.154;8.254;2023-08-08T01:58:49;13.30;99.90
4934;DHT22;2482;49.154;8.254;2023-08-08T02:01:16;13.30;99.90
4934;DHT22;2482;49.154;8.254;2023-08-08T02:03:43;13.30;99.90
4934;DHT22;2482;49.154;8.254;2023-08-08T02:06:10;13.20;99.90
4934;DHT22;2482;49.154;8.254;2023-08-08T02:08:37;13.20;99.90
4934;DHT22;2482;49.154;8.254;2023-08-08T02:11:04;13.20;99.90
4934;DHT22;2482;49.154;8.254;2023-08-08T02:13:31;13.10;99.90
4934;DHT22;2482;49.154;8.254;2023-08-08T02:15:58;13.20;99.90
4934;DHT22;2482;49.154;8.254;2023-08-08T02:18:25;13.10;99.90
4934;DHT22;2482;49.154;8.254;2023-08-08T02:20:52;13.20;99.90
4934;DHT22;2482;49.154;8.254;2023-08-08T02:23:19;13.20;99.90
4934;DHT22;2482;49.154;8.254;2023-08-08T02:25:46;13.10;99.90
4934;DHT22;2482;49.154;8.254;2023-08-08T02:28:13;13.20;99.90
4934;DHT22;2482;49.154;8.254;2023-08-08T02:30:40;13.20;99.90
4934;DHT22;2482;49.154;8.254;2023-08-08T02:33:07;13.20;99.90
4934;DHT22;2482;49.154;8.254;2023-08-08T02:35:36;13.20;99.90
4934;DHT22;2482;49.154;8.254;2023-08-08T02:38:04;13.20;99.90
4934;DHT22;2482;49.154;8.254;2023-08-08T02:40:31;13.10;99.90
4934;DHT22;2482;49.154;8.254;2023-08-08T02:43:00;13.20;99.90
4934;DHT22;2482;49.154;8.254;2023-08-08T02:45:28;13.20;99.90
4934;DHT22;2482;49.154;8.254;2023-08-08T02:47:55;13.10;99.90
4934;DHT22;2482;49.154;8.254;2023-08-08T02:50:22;13.10;99.90
4934;DHT22;2482;49.154;8.254;2023-08-08T02:52:49;13.10;99.90
4934;DHT22;2482;49.154;8.254;2023-08-08T02:55:16;13.10;99.90
4934;DHT22;2482;49.154;8.254;2023-08-08T02:57:43;13.30;99.90
4934;DHT22;2482;49.154;8.254;2023-08-08T03:00:10;13.20;99.90
4934;DHT22;2482;49.154;8.254;2023-08-08T03:02:38;13.10;99.90
4934;DHT22;2482;49.154;8.254;2023-08-08T03:05:05;13.00;99.90
4934;DHT22;2482;49.154;8.254;2023-08-08T03:07:33;13.00;99.90
4934;DHT22;2482;49.154;8.254;2023-08-08T03:10:00;12.90;99.90
4934;DHT22;2482;49.154;8.254;2023-08-08T03:12:27;12.90;99.90
4934;DHT22;2482;49.154;8.254;2023-08-08T03:14:54;12.90;99.90
4934;DHT22;2482;49.154;8.254;2023-08-08T03:17:21;12.90;99.90
4934;DHT22;2482;49.154;8.254;2023-08-08T03:19:48;13.00;99.90
4934;DHT22;2482;49.154;8.254;2023-08-08T03:22:15;13.10;99.90
4934;DHT22;2482;49.154;8.254;2023-08-08T03:24:42;12.80;99.90
4934;DHT22;2482;49.154;8.254;2023-08-08T03:27:09;12.90;99.90
4934;DHT22;2482;49.154;8.254;2023-08-08T03:29:36;12.90;99.90
4934;DHT22;2482;49.154;8.254;2023-08-08T03:32:04;12.90;99.90
4934;DHT22;2482;49.154;8.254;2023-08-08T03:34:32;13.00;99.90
4934;DHT22;2482;49.154;8.254;2023-08-08T03:36:59;12.90;99.90
4934;DHT22;2482;49.154;8.254;2023-08-08T03:39:27;12.90;99.90
4934;DHT22;2482;49.154;8.254;2023-08-08T03:41:54;12.90;99.90
4934;DHT22;2482;49.154;8.254;2023-08-08T03:44:21;12.90;99.90
4934;DHT22;2482;49.154;8.254;2023-08-08T03:46:48;12.90;99.90
4934;DHT22;2482;49.154;8.254;2023-08-08T03:49:19;12.90;99.90
4934;DHT22;2482;49.154;8.254;2023-08-08T03:51:45;12.80;99.90
4934;DHT22;2482;49.154;8.254;2023-08-08T03:54:14;12.90;99.90
4934;DHT22;2482;49.154;8.254;2023-08-08T03:56:41;12.90;99.90
4934;DHT22;2482;49.154;8.254;2023-08-08T03:59:09;12.90;99.90
4934;DHT22;2482;49.154;8.254;2023-08-08T04:01:36;12.80;99.90
4934;DHT22;2482;49.154;8.254;2023-08-08T04:04:04;12.80;99.90
4934;DHT22;2482;49.154;8.254;2023-08-08T04:06:32;12.80;99.90
4934;DHT22;2482;49.154;8.254;2023-08-08T04:08:59;12.80;99.90
4934;DHT22;2482;49.154;8.254;2023-08-08T04:11:27;12.80;99.90
4934;DHT22;2482;49.154;8.254;2023-08-08T04:13:54;12.70;99.90
4934;DHT22;2482;49.154;8.254;2023-08-08T04:16:21;12.70;99.90
4934;DHT22;2482;49.154;8.254;2023-08-08T04:18:52;12.70;99.90
4934;DHT22;2482;49.154;8.254;2023-08-08T04:21:19;12.70;99.90
4934;DHT22;2482;49.154;8.254;2023-08-08T04:23:46;12.80;99.90
4934;DHT22;2482;49.154;8.254;2023-08-08T04:26:13;12.80;99.90
4934;DHT22;2482;49.154;8.254;2023-08-08T04:28:41;12.80;99.90
4934;DHT22;2482;49.154;8.254;2023-08-08T04:31:08;12.80;99.90
4934;DHT22;2482;49.154;8.254;2023-08-08T04:33:35;12.80;99.90
4934;DHT22;2482;49.154;8.254;2023-08-08T04:36:02;12.90;99.90
4934;DHT22;2482;49.154;8.254;2023-08-08T04:38:29;13.00;99.90
4934;DHT22;2482;49.154;8.254;2023-08-08T04:40:56;13.00;99.90
4934;DHT22;2482;49.154;8.254;2023-08-08T04:43:23;13.10;99.90
4934;DHT22;2482;49.154;8.254;2023-08-08T04:45:50;13.10;99.90
4934;DHT22;2482;49.154;8.254;2023-08-08T04:48:17;13.20;99.90
4934;DHT22;2482;49.154;8.254;2023-08-08T04:50:46;13.10;99.90
4934;DHT22;2482;49.154;8.254;2023-08-08T04:53:13;13.10;99.90
4934;DHT22;2482;49.154;8.254;2023-08-08T04:55:40;13.20;99.90
4934;DHT22;2482;49.154;8.254;2023-08-08T04:58:07;13.20;99.90
4934;DHT22;2482;49.154;8.254;2023-08-08T05:00:34;13.30;99.90
4934;DHT22;2482;49.154;8.254;2023-08-08T05:03:02;13.40;99.90
4934;DHT22;2482;49.154;8.254;2023-08-08T05:05:29;13.50;99.90
4934;DHT22;2482;49.154;8.254;2023-08-08T05:07:56;13.70;99.90
4934;DHT22;2482;49.154;8.254;2023-08-08T05:10:23;13.80;99.90
4934;DHT22;2482;49.154;8.254;2023-08-08T05:12:50;13.80;99.90
4934;DHT22;2482;49.154;8.254;2023-08-08T05:15:17;13.80;99.90
4934;DHT22;2482;49.154;8.254;2023-08-08T05:17:44;14.00;99.90
4934;DHT22;2482;49.154;8.254;2023-08-08T05:20:11;14.10;99.90
4934;DHT22;2482;49.154;8.254;2023-08-08T05:22:39;14.20;99.90
4934;DHT22;2482;49.154;8.254;2023-08-08T05:25:06;14.20;99.90
4934;DHT22;2482;49.154;8.254;2023-08-08T05:27:33;14.30;99.90
4934;DHT22;2482;49.154;8.254;2023-08-08T05:30:01;14.40;99.90
4934;DHT22;2482;49.154;8.254;2023-08-08T05:32:29;14.50;99.90
4934;DHT22;2482;49.154;8.254;2023-08-08T05:34:56;14.40;99.90
4934;DHT22;2482;49.154;8.254;2023-08-08T05:37:24;14.50;99.90
4934;DHT22;2482;49.154;8.254;2023-08-08T05:39:51;14.50;99.90
4934;DHT22;2482;49.154;8.254;2023-08-08T05:42:19;14.50;99.90
4934;DHT22;2482;49.154;8.254;2023-08-08T05:44:46;14.50;99.90
4934;DHT22;2482;49.154;8.254;2023-08-08T05:47:13;14.60;99.90
4934;DHT22;2482;49.154;8.254;2023-08-08T05:49:40;14.70;99.90
4934;DHT22;2482;49.154;8.254;2023-08-08T05:52:10;14.70;99.90
4934;DHT22;2482;49.154;8.254;2023-08-08T05:54:37;14.90;99.90
4934;DHT22;2482;49.154;8.254;2023-08-08T05:57:04;14.90;99.90
4934;DHT22;2482;49.154;8.254;2023-08-08T05:59:32;15.00;99.90
4934;DHT22;2482;49.154;8.254;2023-08-08T06:01:59;15.10;99.90
4934;DHT22;2482;49.154;8.254;2023-08-08T06:04:26;15.10;99.90
4934;DHT22;2482;49.154;8.254;2023-08-08T06:06:53;15.10;99.90
4934;DHT22;2482;49.154;8.254;2023-08-08T06:09:20;15.20;99.90
4934;DHT22;2482;49.154;8.254;2023-08-08T06:11:48;15.30;99.90
4934;DHT22;2482;49.154;8.254;2023-08-08T06:14:15;15.30;99.90
4934;DHT22;2482;49.154;8.254;2023-08-08T06:16:43;15.30;99.90
4934;DHT22;2482;49.154;8.254;2023-08-08T06:19:10;15.40;99.90
4934;DHT22;2482;49.154;8.254;2023-08-08T06:21:38;15.60;99.90
4934;DHT22;2482;49.154;8.254;2023-08-08T06:24:05;15.70;99.90
4934;DHT22;2482;49.154;8.254;2023-08-08T06:26:32;15.70;99.90
4934;DHT22;2482;49.154;8.254;2023-08-08T06:28:59;15.70;99.90
4934;DHT22;2482;49.154;8.254;2023-08-08T06:31:26;15.80;99.90
4934;DHT22;2482;49.154;8.254;2023-08-08T06:33:53;15.90;99.90
4934;DHT22;2482;49.154;8.254;2023-08-08T06:36:21;16.00;99.90
4934;DHT22;2482;49.154;8.254;2023-08-08T06:38:48;16.00;99.90
4934;DHT22;2482;49.154;8.254;2023-08-08T06:41:15;15.90;99.90
4934;DHT22;2482;49.154;8.254;2023-08-08T06:43:42;16.10;99.90
4934;DHT22;2482;49.154;8.254;2023-08-08T06:46:08;16.50;99.90
4934;DHT22;2482;49.154;8.254;2023-08-08T06:48:36;16.70;99.90
4934;DHT22;2482;49.154;8.254;2023-08-08T06:51:02;16.80;99.90
4934;DHT22;2482;49.154;8.254;2023-08-08T06:53:29;17.00;99.90
4934;DHT22;2482;49.154;8.254;2023-08-08T06:55:57;16.90;99.90
4934;DHT22;2482;49.154;8.254;2023-08-08T06:58:24;16.90;99.90
4934;DHT22;2482;49.154;8.254;2023-08-08T07:00:51;17.10;99.90
4934;DHT22;2482;49.154;8.254;2023-08-08T07:03:18;17.20;99.90
4934;DHT22;2482;49.154;8.254;2023-08-08T07:05:45;17.30;99.90
4934;DHT22;2482;49.154;8.254;2023-08-08T07:08:14;17.30;99.90
4934;DHT22;2482;49.154;8.254;2023-08-08T07:10:41;17.50;99.90
4934;DHT22;2482;49.154;8.254;2023-08-08T07:13:08;17.60;99.90
4934;DHT22;2482;49.154;8.254;2023-08-08T07:15:35;17.50;99.90
4934;DHT22;2482;49.154;8.254;2023-08-08T07:18:04;17.40;99.90
4934;DHT22;2482;49.154;8.254;2023-08-08T07:20:31;17.60;99.90
4934;DHT22;2482;49.154;8.254;2023-08-08T07:22:58;17.80;99.90
4934;DHT22;2482;49.154;8.254;2023-08-08T07:25:27;18.00;99.90
4934;DHT22;2482;49.154;8.254;2023-08-08T07:27:54;18.20;99.90
4934;DHT22;2482;49.154;8.254;2023-08-08T07:30:21;18.40;99.90
4934;DHT22;2482;49.154;8.254;2023-08-08T07:32:48;18.40;99.90
4934;DHT22;2482;49.154;8.254;2023-08-08T07:35:15;18.40;99.90
4934;DHT22;2482;49.154;8.254;2023-08-08T07:37:43;18.30;99.90
4934;DHT22;2482;49.154;8.254;2023-08-08T07:40:17;18.20;99.90
4934;DHT22;2482;49.154;8.254;2023-08-08T07:42:46;18.20;99.90
4934;DHT22;2482;49.154;8.254;2023-08-08T07:45:14;18.30;99.90
4934;DHT22;2482;49.154;8.254;2023-08-08T07:47:41;18.40;99.90
4934;DHT22;2482;49.154;8.254;2023-08-08T07:50:09;18.60;99.90
4934;DHT22;2482;49.154;8.254;2023-08-08T07:52:38;18.60;99.90
4934;DHT22;2482;49.154;8.254;2023-08-08T07:55:05;18.70;99.90
4934;DHT22;2482;49.154;8.254;2023-08-08T07:57:32;18.60;99.90
4934;DHT22;2482;49.154;8.254;2023-08-08T08:00:02;18.50;99.90
4934;DHT22;2482;49.154;8.254;2023-08-08T08:02:39;18.60;99.90
4934;DHT22;2482;49.154;8.254;2023-08-08T08:05:08;18.50;99.90
4934;DHT22;2482;49.154;8.254;2023-08-08T08:07:36;18.50;99.90
4934;DHT22;2482;49.154;8.254;2023-08-08T08:10:06;18.70;99.90
4934;DHT22;2482;49.154;8.254;2023-08-08T08:12:36;19.10;99.90
4934;DHT22;2482;49.154;8.254;2023-08-08T08:15:04;19.00;99.90
4934;DHT22;2482;49.154;8.254;2023-08-08T08:17:31;18.70;99.90
4934;DHT22;2482;49.154;8.254;2023-08-08T08:19:59;18.70;99.90
4934;DHT22;2482;49.154;8.254;2023-08-08T08:22:26;19.30;99.90
4934;DHT22;2482;49.154;8.254;2023-08-08T08:24:53;19.50;99.90
4934;DHT22;2482;49.154;8.254;2023-08-08T08:27:20;19.60;99.90
4934;DHT22;2482;49.154;8.254;2023-08-08T08:29:47;19.60;99.90
4934;DHT22;2482;49.154;8.254;2023-08-08T08:32:14;19.50;99.90
4934;DHT22;2482;49.154;8.254;2023-08-08T08:34:41;19.60;99.90
4934;DHT22;2482;49.154;8.254;2023-08-08T08:37:08;19.70;99.90
4934;DHT22;2482;49.154;8.254;2023-08-08T08:39:35;20.00;99.90
4934;DHT22;2482;49.154;8.254;2023-08-08T08:42:03;20.00;99.90
4934;DHT22;2482;49.154;8.254;2023-08-08T08:44:32;20.20;99.90
4934;DHT22;2482;49.154;8.254;2023-08-08T08:47:01;20.40;99.90
4934;DHT22;2482;49.154;8.254;2023-08-08T08:49:32;20.30;99.90
4934;DHT22;2482;49.154;8.254;2023-08-08T08:52:02;20.00;99.90
4934;DHT22;2482;49.154;8.254;2023-08-08T08:54:32;19.70;99.90
4934;DHT22;2482;49.154;8.254;2023-08-08T08:56:59;19.60;99.90
4934;DHT22;2482;49.154;8.254;2023-08-08T08:59:26;19.60;99.90
4934;DHT22;2482;49.154;8.254;2023-08-08T09:01:54;19.60;99.90
4934;DHT22;2482;49.154;8.254;2023-08-08T09:04:22;19.90;99.90
4934;DHT22;2482;49.154;8.254;2023-08-08T09:06:51;20.20;99.90
4934;DHT22;2482;49.154;8.254;2023-08-08T09:09:18;19.80;99.90
4934;DHT22;2482;49.154;8.254;2023-08-08T09:11:50;19.80;99.90
4934;DHT22;2482;49.154;8.254;2023-08-08T09:14:19;20.00;99.90
4934;DHT22;2482;49.154;8.254;2023-08-08T09:16:47;20.30;99.90
4934;DHT22;2482;49.154;8.254;2023-08-08T09:19:16;20.30;99.90
4934;DHT22;2482;49.154;8.254;2023-08-08T09:21:45;20.50;99.90
4934;DHT22;2482;49.154;8.254;2023-08-08T09:24:12;20.50;99.90
4934;DHT22;2482;49.154;8.254;2023-08-08T09:26:40;20.30;99.90
4934;DHT22;2482;49.154;8.254;2023-08-08T09:29:08;20.30;99.90
4934;DHT22;2482;49.154;8.254;2023-08-08T09:31:40;20.30;99.90
4934;DHT22;2482;49.154;8.254;2023-08-08T09:34:07;20.40;99.90
4934;DHT22;2482;49.154;8.254;2023-08-08T09:36:34;20.50;99.90
4934;DHT22;2482;49.154;8.254;2023-08-08T09:39:04;20.60;99.90
4934;DHT22;2482;49.154;8.254;2023-08-08T09:41:32;20.90;99.90
4934;DHT22;2482;49.154;8.254;2023-08-08T09:43:59;20.60;99.90
4934;DHT22;2482;49.154;8.254;2023-08-08T09:46:30;20.70;99.90
4934;DHT22;2482;49.154;8.254;2023-08-08T09:48:58;21.10;99.90
4934;DHT22;2482;49.154;8.254;2023-08-08T09:51:26;21.20;99.90
4934;DHT22;2482;49.154;8.254;2023-08-08T09:53:55;21.10;99.90
4934;DHT22;2482;49.154;8.254;2023-08-08T09:56:26;20.80;99.90
4934;DHT22;2482;49.154;8.254;2023-08-08T09:58:53;20.80;99.90
4934;DHT22;2482;49.154;8.254;2023-08-08T10:01:21;21.10;99.90
4934;DHT22;2482;49.154;8.254;2023-08-08T10:03:51;21.60;99.90
4934;DHT22;2482;49.154;8.254;2023-08-08T10:06:19;21.70;99.90
4934;DHT22;2482;49.154;8.254;2023-08-08T10:08:46;21.80;99.90
4934;DHT22;2482;49.154;8.254;2023-08-08T10:11:14;21.50;99.90
4934;DHT22;2482;49.154;8.254;2023-08-08T10:13:48;21.50;99.90
4934;DHT22;2482;49.154;8.254;2023-08-08T10:16:19;21.70;99.90
4934;DHT22;2482;49.154;8.254;2023-08-08T10:18:59;21.60;99.90
4934;DHT22;2482;49.154;8.254;2023-08-08T10:21:27;21.70;99.90
4934;DHT22;2482;49.154;8.254;2023-08-08T10:24:07;21.80;99.90
4934;DHT22;2482;49.154;8.254;2023-08-08T10:26:56;22.00;99.90
4934;DHT22;2482;49.154;8.254;2023-08-08T10:29:28;22.40;99.90
4934;DHT22;2482;49.154;8.254;2023-08-08T10:32:01;22.30;99.90
4934;DHT22;2482;49.154;8.254;2023-08-08T10:34:38;21.90;99.90
4934;DHT22;2482;49.154;8.254;2023-08-08T10:37:28;21.60;99.90
4934;DHT22;2482;49.154;8.254;2023-08-08T10:39:58;21.80;99.90
4934;DHT22;2482;49.154;8.254;2023-08-08T10:42:27;21.90;99.90
4934;DHT22;2482;49.154;8.254;2023-08-08T10:44:59;22.50;99.90
4934;DHT22;2482;49.154;8.254;2023-08-08T10:47:36;22.80;99.90
4934;DHT22;2482;49.154;8.254;2023-08-08T10:50:07;23.10;99.90
4934;DHT22;2482;49.154;8.254;2023-08-08T10:52:58;22.80;99.90
4934;DHT22;2482;49.154;8.254;2023-08-08T10:55:31;22.40;99.90
4934;DHT22;2482;49.154;8.254;2023-08-08T11:00:36;22.50;99.90
4934;DHT22;2482;49.154;8.254;2023-08-08T11:03:06;22.70;99.90
4934;DHT22;2482;49.154;8.254;2023-08-08T11:05:36;22.80;99.90
4934;DHT22;2482;49.154;8.254;2023-08-08T11:08:06;22.80;99.90
4934;DHT22;2482;49.154;8.254;2023-08-08T11:10:38;23.00;99.90
4934;DHT22;2482;49.154;8.254;2023-08-08T11:13:06;23.10;99.90
4934;DHT22;2482;49.154;8.254;2023-08-08T11:15:35;23.50;99.90
4934;DHT22;2482;49.154;8.254;2023-08-08T11:18:05;23.40;99.90
4934;DHT22;2482;49.154;8.254;2023-08-08T11:20:34;23.30;99.90
4934;DHT22;2482;49.154;8.254;2023-08-08T11:23:03;22.90;99.90
4934;DHT22;2482;49.154;8.254;2023-08-08T11:25:40;22.80;99.90
4934;DHT22;2482;49.154;8.254;2023-08-08T11:28:09;23.00;99.90
4934;DHT22;2482;49.154;8.254;2023-08-08T11:30:44;23.10;99.90
4934;DHT22;2482;49.154;8.254;2023-08-08T11:33:13;22.90;99.90
4934;DHT22;2482;49.154;8.254;2023-08-08T11:35:45;23.10;99.90
4934;DHT22;2482;49.154;8.254;2023-08-08T11:38:14;22.90;99.90
4934;DHT22;2482;49.154;8.254;2023-08-08T11:40:42;22.70;99.90
4934;DHT22;2482;49.154;8.254;2023-08-08T11:43:09;23.10;99.90
4934;DHT22;2482;49.154;8.254;2023-08-08T11:45:38;22.90;99.90
4934;DHT22;2482;49.154;8.254;2023-08-08T11:48:05;22.80;99.90
4934;DHT22;2482;49.154;8.254;2023-08-08T11:50:37;22.90;99.90
4934;DHT22;2482;49.154;8.254;2023-08-08T11:53:04;23.10;99.90
4934;DHT22;2482;49.154;8.254;2023-08-08T11:55:32;23.00;99.90
4934;DHT22;2482;49.154;8.254;2023-08-08T11:58:00;22.70;99.90
4934;DHT22;2482;49.154;8.254;2023-08-08T12:00:29;22.60;99.90
4934;DHT22;2482;49.154;8.254;2023-08-08T12:02:58;22.80;99.90
4934;DHT22;2482;49.154;8.254;2023-08-08T12:05:27;22.80;99.90
4934;DHT22;2482;49.154;8.254;2023-08-08T12:07:55;22.80;99.90
4934;DHT22;2482;49.154;8.254;2023-08-08T12:10:23;22.90;99.90
4934;DHT22;2482;49.154;8.254;2023-08-08T12:12:55;23.00;99.70
4934;DHT22;2482;49.154;8.254;2023-08-08T12:15:35;22.90;98.30
4934;DHT22;2482;49.154;8.254;2023-08-08T12:18:03;23.00;98.20
4934;DHT22;2482;49.154;8.254;2023-08-08T12:20:31;23.00;98.90
4934;DHT22;2482;49.154;8.254;2023-08-08T12:22:59;23.10;97.00
4934;DHT22;2482;49.154;8.254;2023-08-08T12:25:26;23.00;97.40
4934;DHT22;2482;49.154;8.254;2023-08-08T12:27:54;23.10;97.70
4934;DHT22;2482;49.154;8.254;2023-08-08T12:30:22;23.20;99.30
4934;DHT22;2482;49.154;8.254;2023-08-08T12:32:49;23.20;98.70
4934;DHT22;2482;49.154;8.254;2023-08-08T12:35:16;23.10;98.30
4934;DHT22;2482;49.154;8.254;2023-08-08T12:37:43;23.00;99.00
4934;DHT22;2482;49.154;8.254;2023-08-08T12:40:11;23.30;97.90
4934;DHT22;2482;49.154;8.254;2023-08-08T12:42:39;23.20;97.50
4934;DHT22;2482;49.154;8.254;2023-08-08T12:45:07;23.00;96.80
4934;DHT22;2482;49.154;8.254;2023-08-08T12:47:34;22.90;97.90
4934;DHT22;2482;49.154;8.254;2023-08-08T12:50:07;22.80;97.40
4934;DHT22;2482;49.154;8.254;2023-08-08T12:52:34;22.90;98.20
4934;DHT22;2482;49.154;8.254;2023-08-08T12:55:02;23.00;97.80
4934;DHT22;2482;49.154;8.254;2023-08-08T12:57:30;23.30;98.40
4934;DHT22;2482;49.154;8.254;2023-08-08T12:59:58;23.60;97.80
4934;DHT22;2482;49.154;8.254;2023-08-08T13:02:25;23.60;97.90
4934;DHT22;2482;49.154;8.254;2023-08-08T13:04:52;23.30;96.70
4934;DHT22;2482;49.154;8.254;2023-08-08T13:07:19;23.10;96.20
4934;DHT22;2482;49.154;8.254;2023-08-08T13:09:46;23.30;97.60
4934;DHT22;2482;49.154;8.254;2023-08-08T13:12:13;23.60;97.50
4934;DHT22;2482;49.154;8.254;2023-08-08T13:14:40;23.40;97.60
4934;DHT22;2482;49.154;8.254;2023-08-08T13:17:07;23.30;97.30
4934;DHT22;2482;49.154;8.254;2023-08-08T13:19:34;23.40;97.20
4934;DHT22;2482;49.154;8.254;2023-08-08T13:22:01;23.60;97.60
4934;DHT22;2482;49.154;8.254;2023-08-08T13:24:29;23.30;96.30
4934;DHT22;2482;49.154;8.254;2023-08-08T13:26:56;23.20;96.90
4934;DHT22;2482;49.154;8.254;2023-08-08T13:29:23;23.10;96.00
4934;DHT22;2482;49.154;8.254;2023-08-08T13:31:50;23.30;95.90
4934;DHT22;2482;49.154;8.254;2023-08-08T13:34:18;23.50;98.30
4934;DHT22;2482;49.154;8.254;2023-08-08T13:36:45;23.70;98.10
4934;DHT22;2482;49.154;8.254;2023-08-08T13:39:12;23.80;96.00
4934;DHT22;2482;49.154;8.254;2023-08-08T13:41:40;23.30;96.50
4934;DHT22;2482;49.154;8.254;2023-08-08T13:44:07;23.10;96.50
4934;DHT22;2482;49.154;8.254;2023-08-08T13:46:34;23.40;97.30
4934;DHT22;2482;49.154;8.254;2023-08-08T13:49:01;23.40;96.40
4934;DHT22;2482;49.154;8.254;2023-08-08T13:51:28;23.50;95.50
4934;DHT22;2482;49.154;8.254;2023-08-08T13:53:55;23.60;96.10
4934;DHT22;2482;49.154;8.254;2023-08-08T13:56:22;23.80;96.10
4934;DHT22;2482;49.154;8.254;2023-08-08T13:58:49;23.70;97.10
4934;DHT22;2482;49.154;8.254;2023-08-08T14:01:16;23.50;96.80
4934;DHT22;2482;49.154;8.254;2023-08-08T14:03:44;23.80;99.30
4934;DHT22;2482;49.154;8.254;2023-08-08T14:06:12;24.10;97.70
4934;DHT22;2482;49.154;8.254;2023-08-08T14:08:39;24.10;98.30
4934;DHT22;2482;49.154;8.254;2023-08-08T14:11:06;24.00;98.00
4934;DHT22;2482;49.154;8.254;2023-08-08T14:13:33;23.90;96.70
4934;DHT22;2482;49.154;8.254;2023-08-08T14:16:01;23.70;99.00
4934;DHT22;2482;49.154;8.254;2023-08-08T14:18:29;24.00;98.60
4934;DHT22;2482;49.154;8.254;2023-08-08T14:20:55;24.30;98.20
4934;DHT22;2482;49.154;8.254;2023-08-08T14:23:22;24.20;98.40
4934;DHT22;2482;49.154;8.254;2023-08-08T14:25:50;24.40;99.30
4934;DHT22;2482;49.154;8.254;2023-08-08T14:28:16;24.20;97.30
4934;DHT22;2482;49.154;8.254;2023-08-08T14:30:44;24.30;98.50
4934;DHT22;2482;49.154;8.254;2023-08-08T14:33:13;23.80;97.50
4934;DHT22;2482;49.154;8.254;2023-08-08T14:35:41;23.90;99.40
4934;DHT22;2482;49.154;8.254;2023-08-08T14:38:08;24.00;98.50
4934;DHT22;2482;49.154;8.254;2023-08-08T14:40:35;23.90;97.10
4934;DHT22;2482;49.154;8.254;2023-08-08T14:43:03;23.50;97.80
4934;DHT22;2482;49.154;8.254;2023-08-08T14:45:37;23.50;98.10
4934;DHT22;2482;49.154;8.254;2023-08-08T14:48:05;23.70;98.80
4934;DHT22;2482;49.154;8.254;2023-08-08T14:50:33;23.90;98.20
4934;DHT22;2482;49.154;8.254;2023-08-08T14:53:01;23.60;98.30
4934;DHT22;2482;49.154;8.254;2023-08-08T14:55:28;23.40;98.70
4934;DHT22;2482;49.154;8.254;2023-08-08T14:57:56;23.30;99.10
4934;DHT22;2482;49.154;8.254;2023-08-08T15:00:23;23.20;99.00
4934;DHT22;2482;49.154;8.254;2023-08-08T15:02:50;23.30;99.90
4934;DHT22;2482;49.154;8.254;2023-08-08T15:05:17;23.20;99.90
4934;DHT22;2482;49.154;8.254;2023-08-08T15:07:44;23.00;99.80
4934;DHT22;2482;49.154;8.254;2023-08-08T15:10:11;22.90;99.90
4934;DHT22;2482;49.154;8.254;2023-08-08T15:12:39;22.80;99.90
4934;DHT22;2482;49.154;8.254;2023-08-08T15:15:08;22.70;99.90
4934;DHT22;2482;49.154;8.254;2023-08-08T15:17:36;22.80;99.90
4934;DHT22;2482;49.154;8.254;2023-08-08T15:20:03;22.90;99.90
4934;DHT22;2482;49.154;8.254;2023-08-08T15:22:31;23.00;99.90
4934;DHT22;2482;49.154;8.254;2023-08-08T15:24:58;23.20;99.90
4934;DHT22;2482;49.154;8.254;2023-08-08T15:27:25;23.60;99.90
4934;DHT22;2482;49.154;8.254;2023-08-08T15:29:52;23.60;99.90
4934;DHT22;2482;49.154;8.254;2023-08-08T15:32:19;23.60;99.90
4934;DHT22;2482;49.154;8.254;2023-08-08T15:34:46;23.30;99.90
4934;DHT22;2482;49.154;8.254;2023-08-08T15:37:13;22.90;99.90
4934;DHT22;2482;49.154;8.254;2023-08-08T15:39:40;22.60;99.90
4934;DHT22;2482;49.154;8.254;2023-08-08T15:42:07;22.90;99.90
4934;DHT22;2482;49.154;8.254;2023-08-08T15:44:34;22.80;99.90
4934;DHT22;2482;49.154;8.254;2023-08-08T15:47:01;22.90;99.90
4934;DHT22;2482;49.154;8.254;2023-08-08T15:49:29;23.10;99.90
4934;DHT22;2482;49.154;8.254;2023-08-08T15:51:56;23.10;99.90
4934;DHT22;2482;49.154;8.254;2023-08-08T15:54:24;23.00;99.90
4934;DHT22;2482;49.154;8.254;2023-08-08T15:56:51;23.10;99.90
4934;DHT22;2482;49.154;8.254;2023-08-08T15:59:18;23.00;99.90
4934;DHT22;2482;49.154;8.254;2023-08-08T16:01:45;23.10;99.90
4934;DHT22;2482;49.154;8.254;2023-08-08T16:04:12;23.40;99.90
4934;DHT22;2482;49.154;8.254;2023-08-08T16:06:41;23.50;99.90
4934;DHT22;2482;49.154;8.254;2023-08-08T16:09:08;23.60;99.90
4934;DHT22;2482;49.154;8.254;2023-08-08T16:11:37;23.60;99.90